createdAt,value
2019-04-16T00:00:47.336Z,412.67
2019-04-16T00:03:14.902Z,403.77
2019-04-16T00:05:45.316Z,388.73
2019-04-16T00:08:27.184Z,385.07
2019-04-16T00:11:04.669Z,369.40
2019-04-16T00:13:43.990Z,382.07
2019-04-16T00:16:13.029Z,388.53
2019-04-16T00:18:41.094Z,369.13
2019-04-16T00:24:22.932Z,464.67
2019-04-16T00:26:58.039Z,415.77
2019-04-16T00:29:25.557Z,449.00
2019-04-16T00:32:07.865Z,386.63
2019-04-16T00:34:33.626Z,433.60
2019-04-16T00:37:01.306Z,379.50
2019-04-16T00:39:28.955Z,449.30
2019-04-16T00:41:57.430Z,412.97
2019-04-16T00:44:24.881Z,400.90
2019-04-16T00:46:52.533Z,403.50
2019-04-16T00:49:20.294Z,461.43
2019-04-16T00:51:47.979Z,373.80
2019-04-16T00:54:15.563Z,482.57
2019-04-16T00:56:43.537Z,415.90
2019-04-16T00:59:12.904Z,426.40
2019-04-16T01:01:40.492Z,402.10
2019-04-16T01:04:08.049Z,441.83
2019-04-16T01:06:37.910Z,378.17
2019-04-16T01:09:06.500Z,390.20
2019-04-16T01:11:35.606Z,386.40
2019-04-16T01:14:03.531Z,402.73
2019-04-16T01:16:32.942Z,386.70
2019-04-16T01:19:00.586Z,466.80
2019-04-16T01:21:28.184Z,410.27
2019-04-16T01:23:55.912Z,434.57
2019-04-16T01:26:24.267Z,432.93
2019-04-16T01:29:02.925Z,417.63
2019-04-16T01:31:36.323Z,310.03
2019-04-16T01:34:25.156Z,333.93
2019-04-16T01:37:17.870Z,300.33
2019-04-16T01:39:47.729Z,340.00
2019-04-16T01:42:15.763Z,293.27
2019-04-16T01:44:43.149Z,323.63
2019-04-16T01:47:10.805Z,314.83
2019-04-16T01:49:39.294Z,336.40
2019-04-16T01:52:07.664Z,302.37
2019-04-16T01:54:35.297Z,334.07
2019-04-16T01:57:02.891Z,312.20
2019-04-16T01:59:30.478Z,328.87
2019-04-16T02:01:57.975Z,301.73
2019-04-16T02:04:25.433Z,338.87
2019-04-16T02:07:05.658Z,287.80
2019-04-16T02:09:34.740Z,339.07
2019-04-16T02:12:03.177Z,338.70
2019-04-16T02:14:30.700Z,327.87
2019-04-16T02:16:58.690Z,310.73
2019-04-16T02:19:26.237Z,302.63
2019-04-16T02:21:53.657Z,298.67
2019-04-16T02:24:21.114Z,328.97
2019-04-16T02:26:49.012Z,287.63
2019-04-16T02:29:17.108Z,341.13
2019-04-16T02:31:47.919Z,306.20
2019-04-16T02:34:14.199Z,316.73
2019-04-16T02:36:41.653Z,282.27
2019-04-16T02:39:09.259Z,313.13
2019-04-16T02:41:36.950Z,301.87
2019-04-16T02:44:04.698Z,315.60
2019-04-16T02:46:32.812Z,287.13
2019-04-16T02:49:02.043Z,300.17
2019-04-16T02:51:51.996Z,280.30
2019-04-16T02:54:32.321Z,320.13
2019-04-16T02:57:03.312Z,300.83
2019-04-16T02:59:36.136Z,302.80
2019-04-16T03:02:31.929Z,286.63
2019-04-16T03:05:07.779Z,296.37
2019-04-16T03:07:35.417Z,257.77
2019-04-16T03:10:04.893Z,277.37
2019-04-16T03:12:32.740Z,260.37
2019-04-16T03:15:01.291Z,285.40
2019-04-16T03:17:39.521Z,299.20
2019-04-16T03:20:09.945Z,260.57
2019-04-16T03:22:37.732Z,310.33
2019-04-16T03:25:06.314Z,288.53
2019-04-16T03:27:33.786Z,261.37
2019-04-16T03:30:03.387Z,259.60
2019-04-16T03:32:35.495Z,265.67
2019-04-16T03:35:03.475Z,272.73
2019-04-16T03:37:32.999Z,262.80
2019-04-16T03:40:14.521Z,284.57
2019-04-16T03:42:29.618Z,255.43
2019-04-16T03:44:56.930Z,279.80
2019-04-16T03:47:24.425Z,245.60
2019-04-16T03:49:51.993Z,273.67
2019-04-16T03:52:19.744Z,253.87
2019-04-16T03:54:47.204Z,287.77
2019-04-16T03:57:15.221Z,268.47
2019-04-16T03:59:42.607Z,309.93
2019-04-16T04:02:10.033Z,266.47
2019-04-16T04:04:37.668Z,274.17
2019-04-16T04:07:05.516Z,265.57
2019-04-16T04:09:33.186Z,285.17
2019-04-16T04:12:00.787Z,280.50
2019-04-16T04:14:28.451Z,311.20
2019-04-16T04:16:56.498Z,282.53
2019-04-16T04:19:23.996Z,291.97
2019-04-16T04:21:53.686Z,261.83
2019-04-16T04:24:21.988Z,290.40
2019-04-16T04:26:49.740Z,255.33
2019-04-16T04:29:39.982Z,301.63
2019-04-16T04:32:07.547Z,254.37
2019-04-16T04:34:35.292Z,321.03
2019-04-16T04:37:02.930Z,281.90
2019-04-16T04:39:30.651Z,287.17
2019-04-16T04:41:58.361Z,272.83
2019-04-16T04:44:25.767Z,297.83
2019-04-16T04:46:53.709Z,289.07
2019-04-16T04:49:21.189Z,327.70
2019-04-16T04:51:48.567Z,302.70
2019-04-16T04:54:16.514Z,324.20
2019-04-16T04:56:44.455Z,323.73
2019-04-16T04:59:11.848Z,331.53
2019-04-16T05:01:42.090Z,295.47
2019-04-16T05:04:34.680Z,352.67
2019-04-16T05:07:04.853Z,293.13
2019-04-16T05:09:35.560Z,328.67
2019-04-16T05:12:02.432Z,287.23
2019-04-16T05:14:30.974Z,299.27
2019-04-16T05:17:00.611Z,274.43
2019-04-16T05:19:29.424Z,314.97
2019-04-16T05:21:57.128Z,292.03
2019-04-16T05:24:28.964Z,299.37
2019-04-16T05:26:56.361Z,290.10
2019-04-16T05:29:24.100Z,303.20
2019-04-16T05:31:54.583Z,295.03
2019-04-16T05:34:25.158Z,320.67
2019-04-16T05:36:53.546Z,283.93
2019-04-16T05:39:21.290Z,307.70
2019-04-16T05:41:52.959Z,273.50
2019-04-16T05:44:22.158Z,334.77
2019-04-16T05:46:50.009Z,276.00
2019-04-16T05:49:17.607Z,318.43
2019-04-16T05:51:46.227Z,303.27
2019-04-16T05:54:31.164Z,326.17
2019-04-16T05:56:58.985Z,279.77
2019-04-16T05:59:27.970Z,333.60
2019-04-16T06:02:01.748Z,309.13
2019-04-16T06:04:30.847Z,322.20
2019-04-16T06:07:03.022Z,312.17
2019-04-16T06:09:29.602Z,300.70
2019-04-16T06:11:58.269Z,295.47
2019-04-16T06:14:49.564Z,315.23
2019-04-16T06:17:36.643Z,306.17
2019-04-16T06:20:24.845Z,298.63
2019-04-16T06:23:01.494Z,291.20
2019-04-16T06:25:42.138Z,300.47
2019-04-16T06:28:16.694Z,297.33
2019-04-16T06:30:48.985Z,300.27
2019-04-16T06:33:30.707Z,305.97
2019-04-16T06:36:17.939Z,291.67
2019-04-16T06:42:30.757Z,302.37
2019-04-16T06:45:11.145Z,316.97
2019-04-16T06:47:48.989Z,342.10
2019-04-16T06:50:39.548Z,296.17
2019-04-16T06:53:10.372Z,306.43
2019-04-16T06:55:43.830Z,298.17
2019-04-16T06:58:50.275Z,307.63
2019-04-16T07:01:15.235Z,292.57
2019-04-16T07:04:54.861Z,295.53
2019-04-16T07:07:45.901Z,308.30
2019-04-16T07:10:15.133Z,308.87
2019-04-16T07:12:44.836Z,298.20
2019-04-16T07:15:22.586Z,305.03
2019-04-16T07:17:48.080Z,303.60
2019-04-16T07:21:02.577Z,349.63
2019-04-16T07:23:32.194Z,306.67
2019-04-16T07:26:32.532Z,319.37
2019-04-16T07:29:08.240Z,304.10
2019-04-16T07:31:45.761Z,279.47
2019-04-16T07:34:51.112Z,326.13
2019-04-16T07:37:39.054Z,305.07
2019-04-16T07:43:46.306Z,316.23
2019-04-16T07:46:32.723Z,284.90
2019-04-16T07:49:19.873Z,299.87
2019-04-16T07:52:07.809Z,268.77
2019-04-16T07:54:55.232Z,332.70
2019-04-16T07:57:28.830Z,301.63
2019-04-16T07:59:59.705Z,283.57
2019-04-16T08:02:28.813Z,272.43
2019-04-16T08:05:00.907Z,278.17
2019-04-16T08:07:31.632Z,279.07
2019-04-16T08:10:02.841Z,267.50
2019-04-16T08:12:31.486Z,281.33
2019-04-16T08:15:18.427Z,273.67
2019-04-16T08:17:46.866Z,263.50
2019-04-16T08:20:20.316Z,275.17
2019-04-16T08:22:55.549Z,249.27
2019-04-16T08:25:33.536Z,293.00
2019-04-16T08:28:14.933Z,288.63
2019-04-16T08:30:45.790Z,273.27
2019-04-16T08:33:14.743Z,275.47
2019-04-16T08:35:44.454Z,258.50
2019-04-16T08:41:31.036Z,257.07
2019-04-16T08:44:03.806Z,279.17
2019-04-16T08:46:33.414Z,269.77
2019-04-16T08:49:05.144Z,249.03
2019-04-16T08:51:37.780Z,259.47
2019-04-16T08:54:07.329Z,290.50
2019-04-16T08:56:35.225Z,258.60
2019-04-16T08:59:03.018Z,279.63
2019-04-16T09:01:35.751Z,265.80
2019-04-16T09:04:12.052Z,278.93
2019-04-16T09:06:42.912Z,245.73
2019-04-16T09:12:40.772Z,256.97
2019-04-16T09:15:11.283Z,254.53
2019-04-16T09:21:10.327Z,277.10
2019-04-16T09:23:39.481Z,286.63
2019-04-16T09:26:24.011Z,272.20
2019-04-16T09:30:25.270Z,310.17
2019-04-16T09:33:17.306Z,252.97
2019-04-16T09:36:11.475Z,241.17
2019-04-16T09:38:52.375Z,291.67
2019-04-16T09:41:33.637Z,275.73
2019-04-16T09:44:56.201Z,300.50
2019-04-16T09:47:25.542Z,245.60
2019-04-16T09:49:55.992Z,266.33
2019-04-16T09:52:25.866Z,224.60
2019-04-16T09:54:54.837Z,265.80
2019-04-16T09:57:24.785Z,240.13
2019-04-16T09:59:59.675Z,267.43
2019-04-16T10:02:42.611Z,252.63
2019-04-16T10:05:11.622Z,225.90
2019-04-16T10:07:41.135Z,225.23
2019-04-16T10:10:10.768Z,246.28
2019-04-16T10:13:30.736Z,262.08
2019-04-16T10:15:51.046Z,230.20
2019-04-16T10:18:20.147Z,239.90
2019-04-16T10:20:48.199Z,234.25
2019-04-16T10:23:26.679Z,385.32
2019-04-16T10:25:54.210Z,341.75
2019-04-16T10:28:24.972Z,311.50
2019-04-16T10:30:53.842Z,310.08
2019-04-16T10:33:23.278Z,311.92
2019-04-16T10:35:50.922Z,286.43
2019-04-16T10:38:30.272Z,390.38
2019-04-16T10:41:15.540Z,268.42
2019-04-16T10:44:03.986Z,329.98
2019-04-16T10:46:43.675Z,279.15
2019-04-16T10:49:23.420Z,353.77
2019-04-16T10:52:11.757Z,293.33
2019-04-16T10:55:13.642Z,339.25
2019-04-16T10:57:59.296Z,299.20
2019-04-16T11:00:31.761Z,269.95
2019-04-16T11:03:34.354Z,282.12
2019-04-16T11:06:34.832Z,293.05
2019-04-16T11:09:06.616Z,311.27
2019-04-16T11:11:34.529Z,244.32
2019-04-16T11:14:02.489Z,319.87
2019-04-16T11:16:30.097Z,274.60
2019-04-16T11:18:57.873Z,276.40
2019-04-16T11:21:27.309Z,279.18
2019-04-16T11:23:55.034Z,306.77
2019-04-16T11:26:22.729Z,329.70
2019-04-16T11:29:27.530Z,305.45
2019-04-16T11:31:54.891Z,308.20
2019-04-16T11:34:22.969Z,305.48
2019-04-16T11:36:50.952Z,338.02
2019-04-16T11:39:20.302Z,354.87
2019-04-16T11:41:48.668Z,308.70
2019-04-16T11:44:18.315Z,306.13
2019-04-16T11:46:45.833Z,300.65
2019-04-16T11:49:13.517Z,356.38
2019-04-16T11:51:41.592Z,312.12
2019-04-16T11:54:12.480Z,349.30
2019-04-16T11:56:42.366Z,312.55
2019-04-16T11:59:11.631Z,353.58
2019-04-16T12:02:04.103Z,242.53
2019-04-16T12:04:59.251Z,322.42
2019-04-16T12:07:41.971Z,271.50
2019-04-16T12:10:32.411Z,267.57
2019-04-16T12:13:13.743Z,282.77
2019-04-16T12:19:20.149Z,260.17
2019-04-16T12:22:02.890Z,264.32
2019-04-16T12:24:54.540Z,311.07
2019-04-16T12:27:42.132Z,270.37
2019-04-16T12:30:19.464Z,295.42
2019-04-16T12:32:58.588Z,263.05
2019-04-16T12:35:35.662Z,306.75
2019-04-16T12:38:20.906Z,261.87
2019-04-16T12:41:14.946Z,282.65
2019-04-16T12:43:56.242Z,264.38
2019-04-16T12:46:30.252Z,277.15
2019-04-16T12:49:35.318Z,278.10
2019-04-16T12:52:15.596Z,237.23
2019-04-16T12:55:15.186Z,337.15
2019-04-16T12:57:48.200Z,282.83
2019-04-16T13:00:47.953Z,273.13
2019-04-16T13:03:37.594Z,273.43
2019-04-16T13:06:58.379Z,273.65
2019-04-16T13:09:45.530Z,331.43
2019-04-16T13:12:47.482Z,334.93
2019-04-16T13:15:40.836Z,297.40
2019-04-16T13:18:15.901Z,321.50
2019-04-16T13:21:07.813Z,325.80
2019-04-16T13:23:55.159Z,327.37
2019-04-16T13:26:40.649Z,337.13
2019-04-16T13:29:29.589Z,362.43
2019-04-16T13:31:59.992Z,320.73
2019-04-16T13:34:27.839Z,349.50
2019-04-16T13:37:01.159Z,323.33
2019-04-16T13:39:48.348Z,362.00
2019-04-16T13:42:16.250Z,325.77
2019-04-16T13:44:50.508Z,376.67
2019-04-16T13:47:18.153Z,321.83
2019-04-16T13:50:02.623Z,439.33
2019-04-16T13:52:26.440Z,327.93
2019-04-16T13:55:13.424Z,436.60
2019-04-16T13:57:43.519Z,325.70
2019-04-16T14:00:17.063Z,341.90
2019-04-16T14:02:51.075Z,328.30
2019-04-16T14:05:19.085Z,350.10
2019-04-16T14:11:19.862Z,315.87
2019-04-16T14:13:50.176Z,315.07
2019-04-16T14:16:19.861Z,419.50
2019-04-16T14:18:47.719Z,360.00
2019-04-16T14:21:17.010Z,368.47
2019-04-16T14:23:44.474Z,333.30
2019-04-16T14:26:12.200Z,328.43
2019-04-16T14:28:51.527Z,341.40
2019-04-16T14:31:09.770Z,344.47
2019-04-16T14:33:55.607Z,338.63
2019-04-16T14:36:23.107Z,326.27
2019-04-16T14:38:58.127Z,285.57
2019-04-16T14:41:25.931Z,309.10
2019-04-16T14:44:02.105Z,309.00
2019-04-16T14:46:33.291Z,311.60
2019-04-16T14:49:01.617Z,356.10
2019-04-16T14:53:54.315Z,312.60
2019-04-16T14:54:52.749Z,404.93
2019-04-16T14:57:22.043Z,327.40
2019-04-16T15:00:03.970Z,396.17
2019-04-16T15:02:40.415Z,364.17
2019-04-16T15:05:15.733Z,325.53
2019-04-16T15:08:04.982Z,318.63
2019-04-16T15:10:44.259Z,305.17
2019-04-16T15:13:36.791Z,310.30
2019-04-16T15:16:30.737Z,330.77
2019-04-16T15:19:47.817Z,341.17
2019-04-16T15:22:44.177Z,313.90
2019-04-16T15:25:30.218Z,447.73
2019-04-16T15:28:04.897Z,311.73
2019-04-16T15:30:52.141Z,409.93
2019-04-16T15:33:35.720Z,439.33
2019-04-16T15:36:10.451Z,393.90
2019-04-16T15:39:06.569Z,345.60
2019-04-16T15:41:46.478Z,382.03
2019-04-16T15:44:32.131Z,395.13
2019-04-16T15:47:19.814Z,381.57
2019-04-16T15:49:55.969Z,382.33
2019-04-16T15:52:46.696Z,377.27
2019-04-16T15:55:30.956Z,441.27
2019-04-16T15:58:26.956Z,340.63
2019-04-16T16:01:20.120Z,321.53
2019-04-16T16:04:11.541Z,383.27
2019-04-16T16:06:55.226Z,384.70
2019-04-16T16:09:27.375Z,392.80
2019-04-16T16:11:59.529Z,367.60
2019-04-16T16:14:33.154Z,415.50
2019-04-16T16:16:57.228Z,395.10
2019-04-16T16:19:24.854Z,400.17
2019-04-16T16:21:52.508Z,383.03
2019-04-16T16:24:20.331Z,409.13
2019-04-16T16:26:50.298Z,344.13
2019-04-16T16:29:18.009Z,446.30
2019-04-16T16:31:46.180Z,335.00
2019-04-16T16:34:13.769Z,372.97
2019-04-16T16:36:41.635Z,348.03
2019-04-16T16:39:09.426Z,375.97
2019-04-16T16:41:38.820Z,373.77
2019-04-16T16:44:06.486Z,369.70
2019-04-16T16:47:05.807Z,358.53
2019-04-16T16:49:33.642Z,366.13
2019-04-16T16:52:42.084Z,353.70
2019-04-16T16:55:15.243Z,351.03
2019-04-16T16:57:49.227Z,400.33
2019-04-16T17:00:42.088Z,339.23
2019-04-16T17:03:28.645Z,313.10
2019-04-16T17:05:56.847Z,372.13
2019-04-16T17:08:27.124Z,324.43
2019-04-16T17:10:54.063Z,354.23
2019-04-16T17:13:21.708Z,348.77
2019-04-16T17:15:49.566Z,325.87
2019-04-16T17:18:17.057Z,366.03
2019-04-16T17:20:44.588Z,361.93
2019-04-16T17:23:16.272Z,352.57
2019-04-16T17:25:42.597Z,319.70
2019-04-16T17:28:10.379Z,363.00
2019-04-16T17:30:38.051Z,360.43
2019-04-16T17:33:06.129Z,387.73
2019-04-16T17:35:33.800Z,351.63
2019-04-16T17:38:03.730Z,358.00
2019-04-16T17:40:40.749Z,317.40
2019-04-16T17:43:16.738Z,321.40
2019-04-16T17:45:52.805Z,326.67
2019-04-16T17:48:27.999Z,333.60
2019-04-16T17:51:06.983Z,316.10
2019-04-16T17:53:39.208Z,335.63
2019-04-16T17:56:21.921Z,363.33
2019-04-16T17:58:52.924Z,388.70
2019-04-16T18:01:40.389Z,347.20
2019-04-16T18:04:19.813Z,375.83
2019-04-16T18:07:07.626Z,343.00
2019-04-16T18:09:39.381Z,394.40
2019-04-16T18:12:34.531Z,320.47
2019-04-16T18:15:22.401Z,406.27
2019-04-16T18:18:15.739Z,333.30
2019-04-16T18:21:15.960Z,334.83
2019-04-16T18:23:54.851Z,348.97
2019-04-16T18:26:31.315Z,383.97
2019-04-16T18:29:21.407Z,374.07
2019-04-16T18:32:21.885Z,381.10
2019-04-16T18:35:02.975Z,406.60
2019-04-16T18:37:39.106Z,369.00
2019-04-16T18:40:30.878Z,382.27
2019-04-16T18:43:16.378Z,312.43
2019-04-16T18:46:02.394Z,349.03
2019-04-16T18:48:31.841Z,375.43
2019-04-16T18:51:01.980Z,347.23
2019-04-16T18:53:30.131Z,332.13
2019-04-16T18:55:57.718Z,356.27
2019-04-16T18:58:25.395Z,397.53
2019-04-16T19:00:58.042Z,314.63
2019-04-16T19:03:28.446Z,419.23
2019-04-16T19:05:59.996Z,352.83
2019-04-16T19:08:40.727Z,370.33
2019-04-16T19:10:59.802Z,373.27
2019-04-16T19:13:29.437Z,336.97
2019-04-16T19:15:57.252Z,345.40
2019-04-16T19:18:38.202Z,363.47
2019-04-16T19:21:10.581Z,322.60
2019-04-16T19:23:38.956Z,376.00
2019-04-16T19:26:07.357Z,336.43
2019-04-16T19:28:39.610Z,345.07
2019-04-16T19:31:06.598Z,411.23
2019-04-16T19:33:38.546Z,385.77
2019-04-16T19:36:09.495Z,325.70
2019-04-16T19:38:40.646Z,355.80
2019-04-16T19:41:08.931Z,393.03
2019-04-16T19:43:38.097Z,382.40
2019-04-16T19:46:07.716Z,403.47
2019-04-16T19:48:36.376Z,343.93
2019-04-16T19:51:07.340Z,456.73
2019-04-16T19:53:34.150Z,404.77
2019-04-16T19:56:02.684Z,413.50
2019-04-16T19:58:31.309Z,390.83
2019-04-16T20:00:59.132Z,403.33
2019-04-16T20:03:30.158Z,386.50
2019-04-16T20:05:57.585Z,389.40
2019-04-16T20:08:25.209Z,415.17
2019-04-16T20:10:52.748Z,388.50
2019-04-16T20:13:20.293Z,388.40
2019-04-16T20:15:52.410Z,389.50
2019-04-16T20:18:49.967Z,425.23
2019-04-16T20:21:06.471Z,406.10
2019-04-16T20:23:34.470Z,413.80
2019-04-16T20:27:08.767Z,360.83
2019-04-16T20:29:36.531Z,388.00
2019-04-16T20:32:04.085Z,409.50
2019-04-16T20:34:31.794Z,415.17
2019-04-16T20:36:59.245Z,387.10
2019-04-16T20:39:27.488Z,422.77
2019-04-16T20:41:59.238Z,343.80
2019-04-16T20:44:24.965Z,439.63
2019-04-16T20:46:58.252Z,377.33
2019-04-16T20:49:27.390Z,420.80
2019-04-16T20:52:00.167Z,373.93
2019-04-16T20:57:31.230Z,387.33
2019-04-16T21:03:21.811Z,382.63
2019-04-16T21:05:57.085Z,442.93
2019-04-16T21:08:11.809Z,374.80
2019-04-16T21:10:40.267Z,345.43
2019-04-16T21:13:09.699Z,377.73
2019-04-16T21:15:37.611Z,405.90
2019-04-16T21:18:10.489Z,349.87
2019-04-16T21:20:35.654Z,349.83
2019-04-16T21:23:03.919Z,393.77
2019-04-16T21:25:31.923Z,363.53
2019-04-16T21:31:22.609Z,388.80
2019-04-16T21:34:07.246Z,378.70
2019-04-16T21:36:48.123Z,387.57
2019-04-16T21:39:22.736Z,434.53
2019-04-16T21:41:50.704Z,404.60
2019-04-16T21:44:18.360Z,467.27
2019-04-16T21:46:52.449Z,390.83
2019-04-16T21:49:20.693Z,436.20
2019-04-16T21:52:06.132Z,367.83
2019-04-16T21:54:34.070Z,424.43
2019-04-16T21:57:01.564Z,364.47
2019-04-16T21:59:29.123Z,484.30
2019-04-16T22:01:59.074Z,443.23
2019-04-16T22:04:26.663Z,402.03
2019-04-16T22:06:57.504Z,332.00
2019-04-16T22:09:24.926Z,419.10
2019-04-16T22:11:52.765Z,403.47
2019-04-16T22:14:22.284Z,428.33
2019-04-16T22:16:49.989Z,357.57
2019-04-16T22:19:17.376Z,388.97
2019-04-16T22:21:44.972Z,365.50
2019-04-16T22:24:12.963Z,410.53
2019-04-16T22:26:40.431Z,375.97
2019-04-16T22:29:15.362Z,458.63
2019-04-16T22:31:41.761Z,339.07
2019-04-16T22:34:10.142Z,421.37
2019-04-16T22:36:37.615Z,379.17
2019-04-16T22:39:19.263Z,377.70
2019-04-16T22:41:58.504Z,377.90
2019-04-16T22:44:44.432Z,426.77
2019-04-16T22:47:15.438Z,383.77
2019-04-16T22:49:42.793Z,411.10
2019-04-16T22:52:13.325Z,368.17
2019-04-16T22:54:41.915Z,399.47
2019-04-16T22:57:12.067Z,411.90
2019-04-16T22:59:40.196Z,399.23
2019-04-16T23:02:17.825Z,404.07
2019-04-16T23:04:45.660Z,367.37
2019-04-16T23:07:13.290Z,395.47
2019-04-16T23:09:40.678Z,415.00
2019-04-16T23:12:08.270Z,356.80
2019-04-16T23:14:35.832Z,401.40
2019-04-16T23:17:03.520Z,333.20
2019-04-16T23:19:31.144Z,385.47
2019-04-16T23:21:59.493Z,370.50
2019-04-16T23:24:27.001Z,427.23
2019-04-16T23:26:54.555Z,334.53
2019-04-16T23:29:22.049Z,383.70
2019-04-16T23:31:49.630Z,372.47
2019-04-16T23:34:18.906Z,448.80
2019-04-16T23:36:48.514Z,324.37
2019-04-16T23:39:16.955Z,432.00
2019-04-16T23:41:48.228Z,368.87
2019-04-16T23:44:36.216Z,388.53
2019-04-16T23:47:23.561Z,353.23
2019-04-16T23:50:00.674Z,423.43
2019-04-16T23:52:34.502Z,336.67
2019-04-16T23:55:23.848Z,346.53
2019-04-16T23:58:12.203Z,364.67
